createdAt,value
2023-02-05T00:00:58.133Z,4.94
2023-02-05T00:03:43.301Z,5.15
2023-02-05T00:06:12.880Z,4.59
2023-02-05T00:08:42.399Z,4.68
2023-02-05T00:11:11.681Z,4.60
2023-02-05T00:13:43.950Z,4.30
2023-02-05T00:16:15.326Z,4.53
2023-02-05T00:18:46.632Z,4.36
2023-02-05T00:21:16.931Z,4.00
2023-02-05T00:23:46.998Z,4.20
2023-02-05T00:26:16.349Z,3.93
2023-02-05T00:28:47.081Z,3.87
2023-02-05T00:31:19.847Z,4.05
2023-02-05T00:33:52.646Z,4.02
2023-02-05T00:36:23.126Z,3.90
2023-02-05T00:38:53.747Z,3.57
2023-02-05T00:41:23.026Z,3.48
2023-02-05T00:43:52.682Z,3.47
2023-02-05T00:46:21.916Z,3.53
2023-02-05T00:48:52.728Z,3.48
2023-02-05T00:51:21.840Z,3.36
2023-02-05T00:53:51.435Z,3.58
2023-02-05T00:56:20.579Z,2.85
2023-02-05T00:58:51.308Z,3.14
2023-02-05T01:01:20.598Z,2.76
2023-02-05T01:03:51.655Z,2.68
2023-02-05T01:06:21.058Z,2.89
2023-02-05T01:08:50.634Z,2.76
2023-02-05T01:11:20.190Z,2.68
2023-02-05T01:13:49.710Z,2.21
2023-02-05T01:16:18.986Z,2.25
2023-02-05T01:18:48.486Z,2.53
2023-02-05T01:21:19.051Z,2.27
2023-02-05T01:23:48.720Z,2.20
2023-02-05T01:26:17.980Z,1.94
2023-02-05T01:28:48.634Z,1.66
2023-02-05T01:31:18.082Z,1.65
2023-02-05T01:33:47.648Z,1.71
2023-02-05T01:36:18.142Z,1.92
2023-02-05T01:38:48.943Z,1.78
2023-02-05T01:41:18.184Z,1.94
2023-02-05T01:44:09.251Z,2.33
2023-02-05T01:46:40.260Z,2.06
2023-02-05T01:49:12.630Z,1.52
2023-02-05T01:51:45.023Z,1.90
2023-02-05T01:54:15.105Z,1.81
2023-02-05T01:56:50.993Z,1.81
2023-02-05T01:59:24.823Z,2.08
2023-02-05T02:01:55.225Z,2.01
2023-02-05T02:04:35.899Z,2.40
2023-02-05T02:07:09.734Z,2.42
2023-02-05T02:09:41.009Z,2.62
2023-02-05T02:12:11.646Z,2.67
2023-02-05T02:14:43.651Z,2.78
2023-02-05T02:17:14.275Z,2.94
2023-02-05T02:19:51.874Z,2.95
2023-02-05T02:22:47.493Z,3.23
2023-02-05T02:25:53.832Z,3.15
2023-02-05T02:28:30.687Z,3.32
2023-02-05T02:31:05.553Z,2.96
2023-02-05T02:33:38.770Z,2.83
2023-02-05T02:36:14.408Z,2.71
2023-02-05T02:38:46.584Z,2.91
2023-02-05T02:41:20.152Z,2.68
2023-02-05T02:43:54.780Z,2.53
2023-02-05T02:46:28.645Z,2.55
2023-02-05T02:49:01.704Z,2.33
2023-02-05T02:51:33.155Z,2.50
2023-02-05T02:54:07.919Z,2.66
2023-02-05T02:56:40.162Z,2.84
2023-02-05T02:59:15.361Z,2.57
2023-02-05T03:01:53.375Z,2.49
2023-02-05T03:04:26.921Z,2.61
2023-02-05T03:07:03.083Z,2.93
2023-02-05T03:09:40.809Z,2.68
2023-02-05T03:12:10.563Z,2.80
2023-02-05T03:14:41.814Z,2.84
2023-02-05T03:17:18.574Z,3.12
2023-02-05T03:19:52.065Z,3.17
2023-02-05T03:22:21.632Z,3.37
2023-02-05T03:24:52.140Z,3.41
2023-02-05T03:27:23.888Z,3.14
2023-02-05T03:29:55.229Z,3.00
2023-02-05T03:33:50.578Z,3.52
2023-02-05T03:36:27.444Z,3.41
2023-02-05T03:39:18.772Z,3.68
2023-02-05T03:42:00.112Z,3.46
2023-02-05T03:45:05.733Z,3.49
2023-02-05T03:47:52.476Z,3.84
2023-02-05T03:50:28.067Z,3.47
2023-02-05T03:53:05.992Z,3.59
2023-02-05T03:55:42.280Z,3.77
2023-02-05T03:58:16.473Z,3.41
2023-02-05T04:00:47.660Z,3.57
2023-02-05T04:03:19.141Z,3.80
2023-02-05T04:05:48.855Z,3.70
2023-02-05T04:08:18.230Z,3.72
2023-02-05T04:10:51.667Z,3.52
2023-02-05T04:13:20.871Z,3.58
2023-02-05T04:15:51.704Z,3.97
2023-02-05T04:18:22.975Z,4.15
2023-02-05T04:20:53.106Z,4.05
2023-02-05T04:23:26.034Z,3.29
2023-02-05T04:25:56.407Z,3.69
2023-02-05T04:28:36.113Z,3.53
2023-02-05T04:31:09.560Z,3.40
2023-02-05T04:33:43.046Z,3.44
2023-02-05T04:36:15.489Z,3.01
2023-02-05T04:38:45.394Z,3.13
2023-02-05T04:41:15.573Z,3.17
2023-02-05T04:43:44.908Z,3.09
2023-02-05T04:46:14.533Z,2.94
2023-02-05T04:48:45.297Z,2.51
2023-02-05T04:51:17.274Z,2.70
2023-02-05T04:53:47.112Z,2.29
2023-02-05T04:56:18.515Z,2.51
2023-02-05T04:58:47.964Z,2.45
2023-02-05T05:01:20.274Z,2.32
2023-02-05T05:03:51.596Z,2.43
2023-02-05T05:06:21.643Z,2.37
2023-02-05T05:08:51.027Z,2.49
2023-02-05T05:11:21.331Z,2.54
2023-02-05T05:13:52.096Z,2.14
2023-02-05T05:16:21.820Z,2.11
2023-02-05T05:18:53.816Z,1.93
2023-02-05T05:21:23.360Z,1.84
2023-02-05T05:23:52.566Z,1.65
2023-02-05T05:26:22.095Z,1.92
2023-02-05T05:28:55.361Z,1.80
2023-02-05T05:31:25.660Z,1.55
2023-02-05T05:33:56.258Z,1.58
2023-02-05T05:36:25.825Z,1.88
2023-02-05T05:38:55.022Z,2.03
2023-02-05T05:41:43.578Z,1.56
2023-02-05T05:44:12.964Z,1.74
2023-02-05T05:46:42.596Z,1.69
2023-02-05T05:49:13.113Z,1.65
2023-02-05T05:51:42.674Z,1.21
2023-02-05T05:54:11.876Z,0.91
2023-02-05T05:56:41.626Z,0.95
2023-02-05T05:59:12.360Z,1.22
2023-02-05T06:01:41.944Z,1.63
2023-02-05T06:04:12.513Z,1.84
2023-02-05T06:06:42.660Z,1.54
2023-02-05T06:09:12.101Z,1.55
2023-02-05T06:11:41.668Z,1.54
2023-02-05T06:14:10.827Z,1.64
2023-02-05T06:16:40.746Z,1.22
2023-02-05T06:19:10.233Z,1.32
2023-02-05T06:21:41.169Z,1.52
2023-02-05T06:24:10.597Z,1.88
2023-02-05T06:26:40.298Z,1.65
2023-02-05T06:29:09.454Z,1.63
2023-02-05T06:31:39.133Z,1.70
2023-02-05T06:34:08.406Z,1.64
2023-02-05T06:36:37.836Z,1.68
2023-02-05T06:39:08.334Z,1.82
2023-02-05T06:41:37.828Z,2.26
2023-02-05T06:44:07.252Z,1.61
2023-02-05T06:46:36.872Z,1.83
2023-02-05T06:49:06.195Z,1.80
2023-02-05T06:51:35.603Z,1.90
2023-02-05T06:54:04.816Z,2.28
2023-02-05T06:56:36.014Z,2.25
2023-02-05T06:59:05.372Z,2.09
2023-02-05T07:01:35.055Z,2.67
2023-02-05T07:04:04.384Z,2.70
2023-02-05T07:06:34.104Z,2.49
2023-02-05T07:09:03.467Z,2.34
2023-02-05T07:11:34.503Z,2.30
2023-02-05T07:14:03.871Z,2.83
2023-02-05T07:16:33.668Z,2.89
2023-02-05T07:19:02.941Z,2.99
2023-02-05T07:21:32.573Z,2.78
2023-02-05T07:24:02.048Z,3.10
2023-02-05T07:26:31.616Z,3.41
2023-02-05T07:29:02.277Z,2.94
2023-02-05T07:31:31.864Z,2.94
2023-02-05T07:34:01.537Z,3.33
2023-02-05T07:36:31.048Z,3.57
2023-02-05T07:39:00.231Z,3.34
2023-02-05T07:41:29.849Z,3.75
2023-02-05T07:43:59.467Z,3.62
2023-02-05T07:46:30.556Z,3.42
2023-02-05T07:48:59.844Z,3.62
2023-02-05T07:51:29.913Z,3.63
2023-02-05T07:53:59.222Z,3.87
2023-02-05T07:56:28.796Z,3.50
2023-02-05T07:58:57.985Z,3.50
2023-02-05T08:01:27.528Z,4.05
2023-02-05T08:03:58.182Z,4.14
2023-02-05T08:06:27.918Z,4.62
2023-02-05T08:08:57.167Z,4.71
2023-02-05T08:11:26.894Z,4.80
2023-02-05T08:13:56.190Z,5.00
2023-02-05T08:16:25.814Z,4.99
2023-02-05T08:18:55.006Z,5.18
2023-02-05T08:21:26.036Z,5.21
2023-02-05T08:23:57.313Z,5.73
2023-02-05T08:26:26.980Z,5.52
2023-02-05T08:28:57.720Z,5.78
2023-02-05T08:31:27.651Z,5.63
2023-02-05T08:33:57.875Z,5.65
2023-02-05T08:36:28.929Z,5.59
2023-02-05T08:38:58.480Z,5.54
2023-02-05T08:41:28.127Z,5.96
2023-02-05T08:43:57.677Z,6.09
2023-02-05T08:46:33.829Z,6.34
2023-02-05T08:49:13.045Z,6.38
2023-02-05T08:51:44.234Z,5.87
2023-02-05T08:54:15.396Z,6.53
2023-02-05T08:56:46.197Z,6.70
2023-02-05T08:59:15.638Z,6.51
2023-02-05T09:01:45.880Z,6.66
2023-02-05T09:04:16.372Z,6.76
2023-02-05T09:06:47.826Z,6.89
2023-02-05T09:09:17.172Z,7.08
2023-02-05T09:11:48.209Z,7.57
2023-02-05T09:14:17.749Z,7.16
2023-02-05T09:16:47.281Z,7.19
2023-02-05T09:19:16.539Z,7.56
2023-02-05T09:21:47.535Z,7.62
2023-02-05T09:24:16.838Z,7.85
2023-02-05T09:26:46.471Z,7.39
2023-02-05T09:29:15.621Z,7.13
2023-02-05T09:31:45.382Z,6.92
2023-02-05T09:34:15.137Z,7.40
2023-02-05T09:36:46.271Z,7.88
2023-02-05T09:39:30.781Z,7.89
2023-02-05T09:42:17.225Z,7.46
2023-02-05T09:44:58.066Z,7.48
2023-02-05T09:47:35.665Z,7.32
2023-02-05T09:50:14.619Z,7.87
2023-02-05T09:52:51.103Z,7.85
2023-02-05T09:55:24.907Z,8.59
2023-02-05T09:57:57.875Z,8.62
2023-02-05T10:00:31.577Z,9.01
2023-02-05T10:03:08.896Z,9.33
2023-02-05T10:05:46.814Z,8.93
2023-02-05T10:08:28.153Z,9.30
2023-02-05T10:10:58.863Z,9.01
2023-02-05T10:13:34.436Z,8.89
2023-02-05T10:16:34.528Z,9.08
2023-02-05T10:19:28.154Z,9.53
2023-02-05T10:22:15.738Z,9.96
2023-02-05T10:25:26.309Z,10.00
2023-02-05T10:28:06.930Z,10.16
2023-02-05T10:30:44.560Z,9.83
2023-02-05T10:33:19.813Z,9.66
2023-02-05T10:36:00.659Z,10.50
2023-02-05T10:38:34.837Z,10.27
2023-02-05T10:41:14.091Z,10.66
2023-02-05T10:43:48.962Z,10.60
2023-02-05T10:46:19.510Z,11.29
2023-02-05T10:48:52.294Z,11.48
2023-02-05T10:51:25.790Z,11.16
2023-02-05T10:53:55.123Z,11.30
2023-02-05T10:56:26.031Z,11.57
2023-02-05T10:58:57.404Z,11.20
2023-02-05T11:01:31.795Z,11.14
2023-02-05T11:04:04.653Z,11.20
2023-02-05T11:06:39.287Z,11.64
2023-02-05T11:09:30.717Z,11.70
2023-02-05T11:12:04.730Z,11.68
2023-02-05T11:14:37.650Z,11.60
2023-02-05T11:17:19.945Z,11.36
2023-02-05T11:19:55.831Z,11.61
2023-02-05T11:22:30.694Z,11.30
2023-02-05T11:25:09.073Z,12.24
2023-02-05T11:27:40.569Z,12.27
2023-02-05T11:33:35.443Z,12.37
2023-02-05T11:36:08.186Z,12.42
2023-02-05T11:38:45.717Z,12.98
2023-02-05T11:41:28.310Z,13.54
2023-02-05T11:44:02.029Z,13.81
2023-02-05T11:46:37.989Z,13.27
2023-02-05T11:49:08.132Z,14.04
2023-02-05T11:51:44.698Z,14.23
2023-02-05T11:54:21.912Z,16.78
2023-02-05T11:57:06.596Z,20.54
2023-02-05T11:59:37.825Z,23.98
2023-02-05T12:02:29.759Z,20.80
2023-02-05T12:05:04.098Z,25.14
2023-02-05T12:07:41.247Z,27.04
2023-02-05T12:10:17.921Z,26.73
2023-02-05T12:12:57.563Z,26.81
2023-02-05T12:15:34.966Z,25.41
2023-02-05T12:18:16.687Z,21.12
2023-02-05T12:20:52.335Z,19.37
2023-02-05T12:23:40.724Z,17.53
2023-02-05T12:26:33.679Z,16.67
2023-02-05T12:29:14.101Z,15.35
2023-02-05T12:31:58.184Z,14.72
2023-02-05T12:34:36.034Z,12.91
2023-02-05T12:37:22.533Z,12.84
2023-02-05T12:39:55.553Z,12.59
2023-02-05T12:42:34.859Z,11.76
2023-02-05T12:45:34.648Z,12.05
2023-02-05T12:48:27.183Z,12.20
2023-02-05T12:51:08.685Z,12.13
2023-02-05T12:53:51.700Z,11.95
2023-02-05T12:56:42.850Z,11.39
2023-02-05T12:59:17.510Z,11.30
2023-02-05T13:01:54.705Z,10.23
2023-02-05T13:04:32.705Z,10.77
2023-02-05T13:07:08.572Z,10.86
2023-02-05T13:09:47.942Z,10.77
2023-02-05T13:12:23.270Z,11.18
2023-02-05T13:14:57.850Z,11.87
2023-02-05T13:17:30.055Z,11.53
2023-02-05T13:20:03.189Z,11.39
2023-02-05T13:22:54.339Z,11.39
2023-02-05T13:25:47.211Z,11.15
2023-02-05T13:28:43.753Z,11.28
2023-02-05T13:31:23.703Z,11.26
2023-02-05T13:33:55.160Z,11.59
2023-02-05T13:36:48.318Z,11.29
2023-02-05T13:39:43.504Z,11.03
2023-02-05T13:42:48.571Z,10.17
2023-02-05T13:45:55.502Z,10.40
2023-02-05T13:48:51.237Z,10.60
2023-02-05T13:51:39.104Z,10.17
2023-02-05T13:54:45.956Z,10.25
2023-02-05T13:57:45.854Z,10.08
2023-02-05T14:00:17.825Z,10.24
2023-02-05T14:02:50.333Z,10.30
2023-02-05T14:05:30.722Z,10.13
2023-02-05T14:08:03.525Z,10.41
2023-02-05T14:10:36.336Z,10.10
2023-02-05T14:13:19.377Z,10.29
2023-02-05T14:15:49.328Z,10.04
2023-02-05T14:18:51.497Z,10.33
2023-02-05T14:22:09.993Z,10.16
2023-02-05T14:24:58.324Z,10.33
2023-02-05T14:27:49.664Z,9.93
2023-02-05T14:30:46.965Z,9.92
2023-02-05T14:33:37.232Z,10.03
2023-02-05T14:36:42.944Z,10.05
2023-02-05T14:39:26.757Z,9.84
2023-02-05T14:41:59.808Z,9.61
2023-02-05T14:44:32.963Z,9.34
2023-02-05T14:47:10.307Z,9.27
2023-02-05T14:49:44.419Z,8.94
2023-02-05T14:52:31.537Z,9.12
2023-02-05T14:55:07.533Z,8.88
2023-02-05T14:57:47.978Z,8.93
2023-02-05T15:00:30.667Z,8.69
2023-02-05T15:03:26.809Z,8.69
2023-02-05T15:05:59.448Z,8.74
2023-02-05T15:08:41.554Z,8.49
2023-02-05T15:11:17.049Z,8.04
2023-02-05T15:14:41.603Z,8.00
2023-02-05T15:17:51.151Z,7.86
2023-02-05T15:20:25.018Z,7.62
2023-02-05T15:23:01.488Z,7.83
2023-02-05T15:25:40.706Z,7.60
2023-02-05T15:28:19.854Z,7.56
2023-02-05T15:31:02.823Z,7.11
2023-02-05T15:33:43.298Z,7.25
2023-02-05T15:36:23.409Z,7.13
2023-02-05T15:39:03.784Z,7.08
2023-02-05T15:41:36.143Z,7.07
2023-02-05T15:44:06.159Z,6.70
2023-02-05T15:46:37.193Z,6.52
2023-02-05T15:49:07.677Z,6.69
2023-02-05T15:51:41.224Z,6.97
2023-02-05T15:54:20.259Z,6.53
2023-02-05T15:56:53.132Z,6.65
2023-02-05T15:59:29.417Z,6.54
2023-02-05T16:02:07.241Z,6.42
2023-02-05T16:04:38.514Z,6.50
2023-02-05T16:07:20.531Z,6.57
2023-02-05T16:09:52.918Z,6.64
2023-02-05T16:12:23.576Z,6.49
2023-02-05T16:15:03.651Z,6.56
2023-02-05T16:17:41.214Z,6.30
2023-02-05T16:20:26.678Z,6.42
2023-02-05T16:23:01.583Z,6.46
2023-02-05T16:25:42.782Z,6.42
2023-02-05T16:28:18.957Z,5.99
2023-02-05T16:30:53.764Z,6.11
2023-02-05T16:33:35.012Z,5.90
2023-02-05T16:36:09.275Z,6.07
2023-02-05T16:38:41.857Z,6.14
2023-02-05T16:41:23.438Z,6.07
2023-02-05T16:43:54.863Z,6.16
2023-02-05T16:46:26.986Z,6.14
2023-02-05T16:49:00.124Z,6.10
2023-02-05T16:51:36.681Z,6.01
2023-02-05T16:54:42.465Z,6.15
2023-02-05T16:57:15.867Z,6.20
2023-02-05T16:59:52.863Z,5.99
2023-02-05T17:02:30.484Z,6.05
2023-02-05T17:05:06.504Z,6.02
2023-02-05T17:07:36.362Z,6.13
2023-02-05T17:10:18.152Z,6.31
2023-02-05T17:12:58.310Z,6.21
2023-02-05T17:15:36.843Z,5.97
2023-02-05T17:18:29.947Z,6.06
2023-02-05T17:21:23.116Z,6.06
2023-02-05T17:23:53.658Z,5.92
2023-02-05T17:26:23.528Z,6.06
2023-02-05T17:28:55.795Z,5.89
2023-02-05T17:31:26.573Z,6.07
2023-02-05T17:33:58.414Z,5.78
2023-02-05T17:36:30.382Z,6.10
2023-02-05T17:39:00.180Z,5.89
2023-02-05T17:41:51.079Z,5.63
2023-02-05T17:44:20.782Z,5.76
2023-02-05T17:46:49.958Z,5.59
2023-02-05T17:49:19.405Z,5.69
2023-02-05T17:51:50.243Z,5.31
2023-02-05T17:54:21.547Z,5.46
2023-02-05T17:56:53.688Z,5.53
2023-02-05T17:59:26.036Z,5.27
2023-02-05T18:01:56.778Z,5.32
2023-02-05T18:04:26.585Z,5.19
2023-02-05T18:06:58.752Z,5.22
2023-02-05T18:09:28.418Z,5.05
2023-02-05T18:11:57.924Z,4.91
2023-02-05T18:14:27.538Z,5.03
2023-02-05T18:16:57.051Z,4.99
2023-02-05T18:19:27.054Z,5.10
2023-02-05T18:21:58.383Z,5.02
2023-02-05T18:24:28.213Z,4.81
2023-02-05T18:26:57.768Z,4.92
2023-02-05T18:29:27.965Z,4.81
2023-02-05T18:31:57.356Z,4.72
2023-02-05T18:34:27.679Z,4.82
2023-02-05T18:36:58.627Z,4.80
2023-02-05T18:39:29.684Z,4.66
2023-02-05T18:41:59.674Z,4.57
2023-02-05T18:44:29.812Z,4.82
2023-02-05T18:47:00.363Z,4.55
2023-02-05T18:49:30.152Z,4.59
2023-02-05T18:52:01.000Z,4.61
2023-02-05T18:54:31.116Z,4.54
2023-02-05T18:57:00.923Z,4.50
2023-02-05T18:59:30.727Z,4.37
2023-02-05T19:02:00.232Z,4.24
2023-02-05T19:04:33.198Z,4.21
2023-02-05T19:07:04.396Z,4.17
2023-02-05T19:09:34.231Z,4.54
2023-02-05T19:12:05.902Z,4.66
2023-02-05T19:14:35.736Z,4.54
2023-02-05T19:17:06.123Z,4.57
2023-02-05T19:19:35.882Z,4.88
2023-02-05T19:22:06.664Z,4.73
2023-02-05T19:24:36.464Z,4.73
2023-02-05T19:27:06.190Z,4.64
2023-02-05T19:29:39.738Z,5.04
2023-02-05T19:32:09.562Z,4.92
2023-02-05T19:34:41.167Z,5.14
2023-02-05T19:37:12.488Z,5.11
2023-02-05T19:39:41.988Z,5.14
2023-02-05T19:42:11.382Z,5.16
2023-02-05T19:44:40.969Z,5.04
2023-02-05T19:47:10.444Z,5.29
2023-02-05T19:49:40.818Z,5.09
2023-02-05T19:52:14.988Z,4.82
2023-02-05T19:54:44.705Z,4.72
2023-02-05T19:57:13.946Z,4.64
2023-02-05T19:59:44.153Z,4.69
2023-02-05T20:02:19.483Z,4.70
2023-02-05T20:04:50.657Z,4.99
2023-02-05T20:07:21.373Z,4.55
2023-02-05T20:09:51.537Z,4.36
2023-02-05T20:12:20.839Z,4.48
2023-02-05T20:14:51.197Z,4.59
2023-02-05T20:17:20.653Z,4.33
2023-02-05T20:19:52.146Z,4.36
2023-02-05T20:22:26.080Z,4.20
2023-02-05T20:24:55.629Z,4.24
2023-02-05T20:27:25.047Z,3.98
2023-02-05T20:30:11.344Z,3.89
2023-02-05T20:32:40.847Z,3.88
2023-02-05T20:35:10.750Z,3.50
2023-02-05T20:37:41.420Z,3.33
2023-02-05T20:40:12.440Z,3.43
2023-02-05T20:42:41.930Z,3.51
2023-02-05T20:45:12.506Z,3.44
2023-02-05T20:47:43.398Z,3.43
2023-02-05T20:50:13.078Z,3.58
2023-02-05T20:52:43.859Z,3.19
2023-02-05T20:55:13.971Z,2.99
2023-02-05T20:57:43.412Z,2.99
2023-02-05T21:00:15.124Z,3.08
2023-02-05T21:02:44.229Z,3.53
2023-02-05T21:05:13.866Z,3.46
2023-02-05T21:07:44.686Z,3.36
2023-02-05T21:10:14.358Z,3.12
2023-02-05T21:12:43.619Z,3.16
2023-02-05T21:15:16.642Z,3.07
2023-02-05T21:17:45.882Z,3.06
2023-02-05T21:20:15.397Z,3.07
2023-02-05T21:22:46.114Z,3.33
2023-02-05T21:25:15.701Z,3.33
2023-02-05T21:27:45.236Z,3.38
2023-02-05T21:30:15.368Z,3.36
2023-02-05T21:32:44.723Z,3.56
2023-02-05T21:35:14.247Z,3.47
2023-02-05T21:37:44.882Z,3.57
2023-02-05T21:40:14.716Z,3.98
2023-02-05T21:42:44.182Z,3.49
2023-02-05T21:45:13.725Z,3.51
2023-02-05T21:47:43.009Z,3.62
2023-02-05T21:50:12.702Z,3.30
2023-02-05T21:52:42.592Z,3.52
2023-02-05T21:55:13.598Z,3.54
2023-02-05T21:57:42.840Z,3.52
2023-02-05T22:00:13.722Z,3.47
2023-02-05T22:02:43.002Z,3.43
2023-02-05T22:05:12.654Z,3.22
2023-02-05T22:07:42.143Z,3.29
2023-02-05T22:10:13.170Z,3.42
2023-02-05T22:12:42.363Z,3.18
2023-02-05T22:15:13.522Z,3.13
2023-02-05T22:17:42.673Z,3.55
2023-02-05T22:20:13.413Z,3.46
2023-02-05T22:22:42.557Z,3.54
2023-02-05T22:25:13.375Z,3.59
2023-02-05T22:27:43.188Z,3.68
2023-02-05T22:30:13.721Z,3.79
2023-02-05T22:32:42.978Z,3.81
2023-02-05T22:35:12.469Z,3.70
2023-02-05T22:37:41.617Z,3.58
2023-02-05T22:40:13.703Z,3.60
2023-02-05T22:42:42.881Z,3.67
2023-02-05T22:45:12.456Z,3.31
2023-02-05T22:47:41.564Z,3.12
2023-02-05T22:50:11.402Z,3.18
2023-02-05T22:52:40.652Z,2.90
2023-02-05T22:55:10.179Z,2.83
2023-02-05T22:57:40.759Z,2.96
2023-02-05T23:00:11.171Z,3.17
2023-02-05T23:02:40.373Z,3.12
2023-02-05T23:05:10.159Z,3.47
2023-02-05T23:07:39.353Z,3.63
2023-02-05T23:10:09.195Z,3.55
2023-02-05T23:12:39.746Z,3.74
2023-02-05T23:15:09.743Z,3.45
2023-02-05T23:17:39.147Z,3.70
2023-02-05T23:20:10.734Z,3.36
2023-02-05T23:22:40.145Z,3.61
2023-02-05T23:25:09.880Z,3.74
2023-02-05T23:27:41.379Z,3.71
2023-02-05T23:30:12.108Z,3.58
2023-02-05T23:32:41.542Z,3.68
2023-02-05T23:35:11.157Z,3.49
2023-02-05T23:37:40.320Z,3.69
2023-02-05T23:40:10.763Z,3.68
2023-02-05T23:42:41.308Z,3.71
2023-02-05T23:45:10.903Z,3.86
2023-02-05T23:47:40.128Z,3.97
2023-02-05T23:50:10.484Z,4.03
2023-02-05T23:52:39.714Z,4.12
2023-02-05T23:55:09.760Z,4.16
2023-02-05T23:57:40.321Z,4.20
